sensor_id;sensor_type;location;lat;lon;timestamp;pressure;altitude;pressure_sealevel;temperature;humidity
45403;BME280;47427;51.976;5.326;2023-01-26T00:03:01;102511.56;;;-0.90;100.00
45403;BME280;47427;51.976;5.326;2023-01-26T00:06:24;102504.47;;;-1.01;100.00
45403;BME280;47427;51.976;5.326;2023-01-26T00:09:46;102491.56;;;-1.10;100.00
45403;BME280;47427;51.976;5.326;2023-01-26T00:13:09;102496.13;;;-1.16;100.00
45403;BME280;47427;51.976;5.326;2023-01-26T00:16:32;102492.03;;;-1.14;100.00
45403;BME280;47427;51.976;5.326;2023-01-26T00:19:57;102486.88;;;-1.14;100.00
45403;BME280;47427;51.976;5.326;2023-01-26T00:23:19;102483.22;;;-1.07;100.00
45403;BME280;47427;51.976;5.326;2023-01-26T00:26:42;102480.22;;;-1.03;100.00
45403;BME280;47427;51.976;5.326;2023-01-26T00:30:04;102486.13;;;-0.95;100.00
45403;BME280;47427;51.976;5.326;2023-01-26T00:33:27;102481.56;;;-0.98;100.00
45403;BME280;47427;51.976;5.326;2023-01-26T00:36:48;102476.44;;;-0.98;100.00
45403;BME280;47427;51.976;5.326;2023-01-26T00:40:11;102477.78;;;-1.01;100.00
45403;BME280;47427;51.976;5.326;2023-01-26T00:43:37;102472.78;;;-1.00;100.00
45403;BME280;47427;51.976;5.326;2023-01-26T00:46:59;102465.97;;;-0.99;100.00
45403;BME280;47427;51.976;5.326;2023-01-26T00:50:21;102469.00;;;-1.03;100.00
45403;BME280;47427;51.976;5.326;2023-01-26T00:53:44;102469.75;;;-1.04;100.00
45403;BME280;47427;51.976;5.326;2023-01-26T00:57:07;102472.34;;;-0.96;100.00
45403;BME280;47427;51.976;5.326;2023-01-26T01:00:31;102469.00;;;-0.95;100.00
45403;BME280;47427;51.976;5.326;2023-01-26T01:03:54;102472.78;;;-0.91;100.00
45403;BME280;47427;51.976;5.326;2023-01-26T01:07:15;102472.19;;;-0.89;100.00
45403;BME280;47427;51.976;5.326;2023-01-26T01:10:38;102461.09;;;-0.88;100.00
45403;BME280;47427;51.976;5.326;2023-01-26T01:13:59;102456.13;;;-0.86;100.00
45403;BME280;47427;51.976;5.326;2023-01-26T01:17:22;102455.19;;;-0.87;100.00
45403;BME280;47427;51.976;5.326;2023-01-26T01:20:44;102457.63;;;-0.88;100.00
45403;BME280;47427;51.976;5.326;2023-01-26T01:24:06;102458.53;;;-0.88;100.00
45403;BME280;47427;51.976;5.326;2023-01-26T01:27:27;102453.22;;;-0.89;100.00
45403;BME280;47427;51.976;5.326;2023-01-26T01:30:50;102450.63;;;-0.89;100.00
45403;BME280;47427;51.976;5.326;2023-01-26T01:34:11;102453.84;;;-0.83;100.00
45403;BME280;47427;51.976;5.326;2023-01-26T01:37:34;102453.06;;;-0.82;100.00
45403;BME280;47427;51.976;5.326;2023-01-26T01:40:57;102451.72;;;-0.78;100.00
45403;BME280;47427;51.976;5.326;2023-01-26T01:44:22;102450.91;;;-0.69;100.00
45403;BME280;47427;51.976;5.326;2023-01-26T01:47:48;102445.75;;;-0.69;100.00
45403;BME280;47427;51.976;5.326;2023-01-26T01:51:20;102445.00;;;-0.68;100.00
45403;BME280;47427;51.976;5.326;2023-01-26T01:54:54;102438.22;;;-0.76;100.00
45403;BME280;47427;51.976;5.326;2023-01-26T01:58:18;102429.09;;;-0.72;100.00
45403;BME280;47427;51.976;5.326;2023-01-26T02:01:39;102424.41;;;-0.76;100.00
45403;BME280;47427;51.976;5.326;2023-01-26T02:05:09;102430.78;;;-0.73;100.00
45403;BME280;47427;51.976;5.326;2023-01-26T02:08:49;102425.28;;;-0.67;100.00
45403;BME280;47427;51.976;5.326;2023-01-26T02:12:13;102421.38;;;-0.72;100.00
45403;BME280;47427;51.976;5.326;2023-01-26T02:15:36;102433.03;;;-0.67;100.00
45403;BME280;47427;51.976;5.326;2023-01-26T02:18:59;102426.19;;;-0.67;100.00
45403;BME280;47427;51.976;5.326;2023-01-26T02:22:41;102424.09;;;-0.71;100.00
45403;BME280;47427;51.976;5.326;2023-01-26T02:26:14;102421.66;;;-0.69;100.00
45403;BME280;47427;51.976;5.326;2023-01-26T02:29:45;102414.09;;;-0.68;100.00
45403;BME280;47427;51.976;5.326;2023-01-26T02:33:16;102409.53;;;-0.70;100.00
45403;BME280;47427;51.976;5.326;2023-01-26T02:36:39;102422.56;;;-0.69;100.00
45403;BME280;47427;51.976;5.326;2023-01-26T02:40:16;102426.06;;;-0.68;100.00
45403;BME280;47427;51.976;5.326;2023-01-26T02:43:41;102423.16;;;-0.71;100.00
45403;BME280;47427;51.976;5.326;2023-01-26T02:47:15;102433.31;;;-0.64;100.00
45403;BME280;47427;51.976;5.326;2023-01-26T02:50:37;102414.09;;;-0.68;100.00
45403;BME280;47427;51.976;5.326;2023-01-26T02:53:58;102433.94;;;-0.67;100.00
45403;BME280;47427;51.976;5.326;2023-01-26T02:57:21;102429.38;;;-0.60;100.00
45403;BME280;47427;51.976;5.326;2023-01-26T03:00:45;102432.88;;;-0.69;100.00
45403;BME280;47427;51.976;5.326;2023-01-26T03:04:06;102428.16;;;-0.64;100.00
45403;BME280;47427;51.976;5.326;2023-01-26T03:07:29;102435.28;;;-0.61;100.00
45403;BME280;47427;51.976;5.326;2023-01-26T03:10:51;102437.13;;;-0.60;100.00
45403;BME280;47427;51.976;5.326;2023-01-26T03:14:14;102427.88;;;-0.67;100.00
45403;BME280;47427;51.976;5.326;2023-01-26T03:17:37;102430.00;;;-0.63;100.00
45403;BME280;47427;51.976;5.326;2023-01-26T03:21:04;102431.19;;;-0.59;100.00
45403;BME280;47427;51.976;5.326;2023-01-26T03:24:45;102432.25;;;-0.57;100.00
45403;BME280;47427;51.976;5.326;2023-01-26T03:28:25;102438.75;;;-0.52;100.00
45403;BME280;47427;51.976;5.326;2023-01-26T03:31:47;102433.44;;;-0.54;100.00
45403;BME280;47427;51.976;5.326;2023-01-26T03:35:10;102433.13;;;-0.48;100.00
45403;BME280;47427;51.976;5.326;2023-01-26T03:38:38;102428.28;;;-0.45;100.00
45403;BME280;47427;51.976;5.326;2023-01-26T03:41:59;102419.63;;;-0.46;100.00
45403;BME280;47427;51.976;5.326;2023-01-26T03:45:40;102414.72;;;-0.34;100.00
45403;BME280;47427;51.976;5.326;2023-01-26T03:49:26;102425.47;;;-0.29;100.00
45403;BME280;47427;51.976;5.326;2023-01-26T03:53:17;102417.31;;;-0.34;100.00
45403;BME280;47427;51.976;5.326;2023-01-26T03:57:01;102427.28;;;-0.28;100.00
45403;BME280;47427;51.976;5.326;2023-01-26T04:00:23;102422.91;;;-0.29;100.00
45403;BME280;47427;51.976;5.326;2023-01-26T04:03:47;102414.25;;;-0.30;100.00
45403;BME280;47427;51.976;5.326;2023-01-26T04:07:27;102421.66;;;-0.24;100.00
45403;BME280;47427;51.976;5.326;2023-01-26T04:11:07;102419.41;;;-0.30;100.00
45403;BME280;47427;51.976;5.326;2023-01-26T04:14:29;102417.19;;;-0.35;100.00
45403;BME280;47427;51.976;5.326;2023-01-26T04:18:11;102413.38;;;-0.30;100.00
45403;BME280;47427;51.976;5.326;2023-01-26T04:21:54;102417.28;;;-0.25;100.00
45403;BME280;47427;51.976;5.326;2023-01-26T04:25:17;102414.25;;;-0.30;100.00
45403;BME280;47427;51.976;5.326;2023-01-26T04:28:41;102416.66;;;-0.23;100.00
45403;BME280;47427;51.976;5.326;2023-01-26T04:32:03;102418.75;;;-0.18;100.00
45403;BME280;47427;51.976;5.326;2023-01-26T04:35:27;102425.59;;;-0.19;100.00
45403;BME280;47427;51.976;5.326;2023-01-26T04:38:48;102412.53;;;-0.20;100.00
45403;BME280;47427;51.976;5.326;2023-01-26T04:42:14;102406.00;;;-0.17;100.00
45403;BME280;47427;51.976;5.326;2023-01-26T04:45:37;102415.38;;;-0.09;100.00
45403;BME280;47427;51.976;5.326;2023-01-26T04:49:00;102418.56;;;-0.11;100.00
45403;BME280;47427;51.976;5.326;2023-01-26T04:52:22;102415.22;;;-0.10;100.00
45403;BME280;47427;51.976;5.326;2023-01-26T04:55:46;102412.94;;;-0.07;100.00
45403;BME280;47427;51.976;5.326;2023-01-26T04:59:10;102410.50;;;-0.06;100.00
45403;BME280;47427;51.976;5.326;2023-01-26T05:02:34;102411.81;;;-0.01;100.00
45403;BME280;47427;51.976;5.326;2023-01-26T05:05:56;102407.59;;;0.00;100.00
45403;BME280;47427;51.976;5.326;2023-01-26T05:09:19;102408.50;;;0.01;100.00
45403;BME280;47427;51.976;5.326;2023-01-26T05:12:51;102403.63;;;0.04;100.00
45403;BME280;47427;51.976;5.326;2023-01-26T05:16:33;102403.28;;;0.09;100.00
45403;BME280;47427;51.976;5.326;2023-01-26T05:20:15;102392.06;;;0.09;100.00
45403;BME280;47427;51.976;5.326;2023-01-26T05:23:58;102383.22;;;0.15;100.00
45403;BME280;47427;51.976;5.326;2023-01-26T05:27:55;102395.50;;;0.18;100.00
45403;BME280;47427;51.976;5.326;2023-01-26T05:31:16;102396.13;;;0.15;100.00
45403;BME280;47427;51.976;5.326;2023-01-26T05:34:38;102388.66;;;0.18;100.00
45403;BME280;47427;51.976;5.326;2023-01-26T05:38:01;102394.25;;;0.23;100.00
45403;BME280;47427;51.976;5.326;2023-01-26T05:41:26;102391.94;;;0.26;100.00
45403;BME280;47427;51.976;5.326;2023-01-26T05:45:14;102398.16;;;0.28;100.00
45403;BME280;47427;51.976;5.326;2023-01-26T05:48:36;102393.91;;;0.29;100.00
45403;BME280;47427;51.976;5.326;2023-01-26T05:51:58;102381.47;;;0.25;100.00
45403;BME280;47427;51.976;5.326;2023-01-26T05:55:39;102400.03;;;0.20;100.00
45403;BME280;47427;51.976;5.326;2023-01-26T05:59:00;102395.44;;;0.27;100.00
45403;BME280;47427;51.976;5.326;2023-01-26T06:02:22;102400.88;;;0.30;100.00
45403;BME280;47427;51.976;5.326;2023-01-26T06:05:51;102409.19;;;0.36;100.00
45403;BME280;47427;51.976;5.326;2023-01-26T06:09:21;102412.69;;;0.36;100.00
45403;BME280;47427;51.976;5.326;2023-01-26T06:12:59;102416.44;;;0.40;100.00
45403;BME280;47427;51.976;5.326;2023-01-26T06:16:43;102416.63;;;0.33;100.00
45403;BME280;47427;51.976;5.326;2023-01-26T06:20:06;102411.47;;;0.33;100.00
45403;BME280;47427;51.976;5.326;2023-01-26T06:23:30;102424.06;;;0.38;100.00
45403;BME280;47427;51.976;5.326;2023-01-26T06:26:55;102417.50;;;0.42;100.00
45403;BME280;47427;51.976;5.326;2023-01-26T06:30:18;102425.41;;;0.43;100.00
45403;BME280;47427;51.976;5.326;2023-01-26T06:33:42;102429.00;;;0.46;100.00
45403;BME280;47427;51.976;5.326;2023-01-26T06:37:06;102430.69;;;0.45;100.00
45403;BME280;47427;51.976;5.326;2023-01-26T06:40:31;102428.09;;;0.45;100.00
45403;BME280;47427;51.976;5.326;2023-01-26T06:43:52;102433.56;;;0.48;100.00
45403;BME280;47427;51.976;5.326;2023-01-26T06:47:15;102427.97;;;0.43;100.00
45403;BME280;47427;51.976;5.326;2023-01-26T06:50:38;102433.25;;;0.45;100.00
45403;BME280;47427;51.976;5.326;2023-01-26T06:54:01;102430.22;;;0.49;100.00
45403;BME280;47427;51.976;5.326;2023-01-26T06:57:49;102434.75;;;0.52;100.00
45403;BME280;47427;51.976;5.326;2023-01-26T07:01:43;102435.28;;;0.58;100.00
45403;BME280;47427;51.976;5.326;2023-01-26T07:05:07;102443.47;;;0.62;100.00
45403;BME280;47427;51.976;5.326;2023-01-26T07:08:29;102436.50;;;0.61;100.00
45403;BME280;47427;51.976;5.326;2023-01-26T07:11:50;102438.03;;;0.59;100.00
45403;BME280;47427;51.976;5.326;2023-01-26T07:15:13;102437.94;;;0.68;100.00
45403;BME280;47427;51.976;5.326;2023-01-26T07:18:36;102445.06;;;0.71;100.00
45403;BME280;47427;51.976;5.326;2023-01-26T07:21:57;102440.69;;;0.70;100.00
45403;BME280;47427;51.976;5.326;2023-01-26T07:25:20;102448.09;;;0.75;100.00
45403;BME280;47427;51.976;5.326;2023-01-26T07:28:43;102451.56;;;0.76;100.00
45403;BME280;47427;51.976;5.326;2023-01-26T07:32:05;102451.19;;;0.71;100.00
45403;BME280;47427;51.976;5.326;2023-01-26T07:35:29;102455.28;;;0.69;100.00
45403;BME280;47427;51.976;5.326;2023-01-26T07:38:50;102459.19;;;0.74;100.00
45403;BME280;47427;51.976;5.326;2023-01-26T07:42:16;102460.38;;;0.78;100.00
45403;BME280;47427;51.976;5.326;2023-01-26T07:45:53;102461.91;;;0.76;100.00
45403;BME280;47427;51.976;5.326;2023-01-26T07:49:14;102468.00;;;0.76;100.00
45403;BME280;47427;51.976;5.326;2023-01-26T07:52:37;102474.34;;;0.80;100.00
45403;BME280;47427;51.976;5.326;2023-01-26T07:56:10;102477.72;;;0.79;100.00
45403;BME280;47427;51.976;5.326;2023-01-26T07:59:33;102484.22;;;0.84;100.00
45403;BME280;47427;51.976;5.326;2023-01-26T08:02:56;102478.09;;;0.83;100.00
45403;BME280;47427;51.976;5.326;2023-01-26T08:06:18;102477.47;;;0.86;100.00
45403;BME280;47427;51.976;5.326;2023-01-26T08:09:41;102474.69;;;0.93;100.00
45403;BME280;47427;51.976;5.326;2023-01-26T08:13:03;102472.53;;;0.98;100.00
45403;BME280;47427;51.976;5.326;2023-01-26T08:16:27;102466.31;;;0.96;100.00
45403;BME280;47427;51.976;5.326;2023-01-26T08:19:50;102474.47;;;1.00;100.00
45403;BME280;47427;51.976;5.326;2023-01-26T08:23:12;102474.47;;;1.00;100.00
45403;BME280;47427;51.976;5.326;2023-01-26T08:26:34;102482.94;;;1.08;100.00
45403;BME280;47427;51.976;5.326;2023-01-26T08:29:58;102473.50;;;1.08;100.00
45403;BME280;47427;51.976;5.326;2023-01-26T08:33:22;102477.06;;;1.19;100.00
45403;BME280;47427;51.976;5.326;2023-01-26T08:36:45;102482.69;;;1.34;100.00
45403;BME280;47427;51.976;5.326;2023-01-26T08:40:08;102487.50;;;1.40;100.00
45403;BME280;47427;51.976;5.326;2023-01-26T08:43:30;102488.09;;;1.56;100.00
45403;BME280;47427;51.976;5.326;2023-01-26T08:46:52;102484.66;;;1.66;100.00
45403;BME280;47427;51.976;5.326;2023-01-26T08:50:15;102492.28;;;1.74;100.00
45403;BME280;47427;51.976;5.326;2023-01-26T08:53:36;102491.03;;;1.80;100.00
45403;BME280;47427;51.976;5.326;2023-01-26T08:56:59;102501.13;;;1.87;100.00
45403;BME280;47427;51.976;5.326;2023-01-26T09:00:22;102492.75;;;2.00;100.00
45403;BME280;47427;51.976;5.326;2023-01-26T09:03:45;102487.75;;;2.11;100.00
45403;BME280;47427;51.976;5.326;2023-01-26T09:07:07;102494.09;;;2.25;100.00
45403;BME280;47427;51.976;5.326;2023-01-26T09:10:49;102497.50;;;2.24;100.00
45403;BME280;47427;51.976;5.326;2023-01-26T09:14:10;102500.88;;;2.33;100.00
45403;BME280;47427;51.976;5.326;2023-01-26T09:17:31;102501.94;;;2.46;100.00
45403;BME280;47427;51.976;5.326;2023-01-26T09:20:54;102497.00;;;2.59;100.00
45403;BME280;47427;51.976;5.326;2023-01-26T09:24:17;102496.22;;;2.60;100.00
45403;BME280;47427;51.976;5.326;2023-01-26T09:27:38;102502.59;;;2.84;100.00
45403;BME280;47427;51.976;5.326;2023-01-26T09:31:05;102510.94;;;3.22;100.00
45403;BME280;47427;51.976;5.326;2023-01-26T09:34:29;102514.22;;;3.62;100.00
45403;BME280;47427;51.976;5.326;2023-01-26T09:37:50;102501.91;;;3.82;100.00
45403;BME280;47427;51.976;5.326;2023-01-26T09:55:44;102505.66;;;4.63;100.00
45403;BME280;47427;51.976;5.326;2023-01-26T10:02:54;102516.16;;;4.53;100.00
45403;BME280;47427;51.976;5.326;2023-01-26T10:10:06;102508.53;;;4.66;100.00
45403;BME280;47427;51.976;5.326;2023-01-26T10:13:29;102520.63;;;4.77;100.00
45403;BME280;47427;51.976;5.326;2023-01-26T10:16:51;102522.59;;;4.92;100.00
45403;BME280;47427;51.976;5.326;2023-01-26T10:20:33;102517.22;;;5.12;100.00
45403;BME280;47427;51.976;5.326;2023-01-26T10:23:55;102505.00;;;5.58;100.00
45403;BME280;47427;51.976;5.326;2023-01-26T10:27:20;102503.66;;;6.12;100.00
45403;BME280;47427;51.976;5.326;2023-01-26T10:30:44;102504.94;;;7.19;100.00
45403;BME280;47427;51.976;5.326;2023-01-26T10:34:15;102497.59;;;9.39;100.00
45403;BME280;47427;51.976;5.326;2023-01-26T10:37:38;102499.81;;;12.17;100.00
45403;BME280;47427;51.976;5.326;2023-01-26T10:41:06;102498.16;;;12.19;100.00
45403;BME280;47427;51.976;5.326;2023-01-26T10:44:33;102505.00;;;11.24;100.00
45403;BME280;47427;51.976;5.326;2023-01-26T10:51:45;102489.72;;;14.39;100.00
45403;BME280;47427;51.976;5.326;2023-01-26T10:55:15;102493.72;;;15.27;100.00
45403;BME280;47427;51.976;5.326;2023-01-26T10:58:56;102501.09;;;14.14;100.00
45403;BME280;47427;51.976;5.326;2023-01-26T11:02:21;102499.25;;;12.05;100.00
45403;BME280;47427;51.976;5.326;2023-01-26T11:05:43;102517.97;;;10.87;100.00
45403;BME280;47427;51.976;5.326;2023-01-26T11:09:26;102514.91;;;10.29;100.00
45403;BME280;47427;51.976;5.326;2023-01-26T11:12:50;102505.84;;;10.24;100.00
45403;BME280;47427;51.976;5.326;2023-01-26T11:16:19;102514.22;;;10.66;100.00
45403;BME280;47427;51.976;5.326;2023-01-26T11:34:15;102507.25;;;9.86;100.00
45403;BME280;47427;51.976;5.326;2023-01-26T11:37:47;102497.72;;;9.71;100.00
45403;BME280;47427;51.976;5.326;2023-01-26T11:41:35;102506.22;;;9.98;100.00
45403;BME280;47427;51.976;5.326;2023-01-26T11:45:15;102511.63;;;10.02;100.00
45403;BME280;47427;51.976;5.326;2023-01-26T11:53:04;102493.13;;;9.67;100.00
45403;BME280;47427;51.976;5.326;2023-01-26T11:57:48;102492.78;;;9.61;100.00
45403;BME280;47427;51.976;5.326;2023-01-26T12:00:41;102488.34;;;9.91;100.00
45403;BME280;47427;51.976;5.326;2023-01-26T12:04:04;102497.16;;;10.74;100.00
45403;BME280;47427;51.976;5.326;2023-01-26T12:07:29;102492.25;;;10.98;100.00
45403;BME280;47427;51.976;5.326;2023-01-26T12:14:22;102479.16;;;12.07;100.00
45403;BME280;47427;51.976;5.326;2023-01-26T12:17:58;102470.97;;;11.45;100.00
45403;BME280;47427;51.976;5.326;2023-01-26T12:21:21;102471.50;;;10.86;100.00
45403;BME280;47427;51.976;5.326;2023-01-26T12:24:52;102459.28;;;12.52;100.00
45403;BME280;47427;51.976;5.326;2023-01-26T12:28:29;102457.19;;;15.15;100.00
45403;BME280;47427;51.976;5.326;2023-01-26T12:35:43;102442.06;;;17.24;100.00
45403;BME280;47427;51.976;5.326;2023-01-26T12:39:29;102444.69;;;17.61;100.00
45403;BME280;47427;51.976;5.326;2023-01-26T13:01:17;102413.22;;;16.68;100.00
45403;BME280;47427;51.976;5.326;2023-01-26T13:04:41;102411.03;;;15.61;100.00
45403;BME280;47427;51.976;5.326;2023-01-26T13:11:58;102409.25;;;15.60;100.00
45403;BME280;47427;51.976;5.326;2023-01-26T13:15:22;102398.34;;;14.94;99.37
45403;BME280;47427;51.976;5.326;2023-01-26T13:19:00;102394.38;;;15.35;100.00
45403;BME280;47427;51.976;5.326;2023-01-26T13:25:49;102407.59;;;14.81;99.27
45403;BME280;47427;51.976;5.326;2023-01-26T13:29:30;102413.13;;;16.32;92.85
45403;BME280;47427;51.976;5.326;2023-01-26T13:33:03;102409.00;;;17.87;88.13
45403;BME280;47427;51.976;5.326;2023-01-26T13:36:25;102404.94;;;15.08;86.49
45403;BME280;47427;51.976;5.326;2023-01-26T13:39:58;102407.63;;;16.24;89.18
45403;BME280;47427;51.976;5.326;2023-01-26T13:43:28;102411.41;;;14.89;86.64
45403;BME280;47427;51.976;5.326;2023-01-26T13:47:38;102414.41;;;16.15;86.84
45403;BME280;47427;51.976;5.326;2023-01-26T13:50:51;102403.81;;;17.16;84.22
45403;BME280;47427;51.976;5.326;2023-01-26T13:54:13;102405.34;;;17.81;80.00
45403;BME280;47427;51.976;5.326;2023-01-26T13:57:36;102415.16;;;17.47;76.97
45403;BME280;47427;51.976;5.326;2023-01-26T14:01:04;102428.31;;;16.08;79.66
45403;BME280;47427;51.976;5.326;2023-01-26T14:04:28;102424.31;;;16.22;80.67
45403;BME280;47427;51.976;5.326;2023-01-26T14:07:50;102436.81;;;13.90;87.46
45403;BME280;47427;51.976;5.326;2023-01-26T14:11:17;102432.84;;;12.49;93.28
45403;BME280;47427;51.976;5.326;2023-01-26T14:14:39;102426.59;;;11.34;96.84
45403;BME280;47427;51.976;5.326;2023-01-26T14:18:03;102414.81;;;10.90;100.00
45403;BME280;47427;51.976;5.326;2023-01-26T14:21:25;102420.38;;;10.96;100.00
45403;BME280;47427;51.976;5.326;2023-01-26T14:24:50;102418.56;;;10.77;100.00
45403;BME280;47427;51.976;5.326;2023-01-26T14:28:17;102418.94;;;10.84;100.00
45403;BME280;47427;51.976;5.326;2023-01-26T14:31:42;102432.56;;;10.43;100.00
45403;BME280;47427;51.976;5.326;2023-01-26T14:35:20;102425.50;;;10.09;100.00
45403;BME280;47427;51.976;5.326;2023-01-26T14:38:46;102419.91;;;9.87;100.00
45403;BME280;47427;51.976;5.326;2023-01-26T14:42:09;102414.47;;;9.51;100.00
45403;BME280;47427;51.976;5.326;2023-01-26T14:45:35;102419.16;;;9.10;100.00
45403;BME280;47427;51.976;5.326;2023-01-26T14:49:06;102428.66;;;8.94;100.00
45403;BME280;47427;51.976;5.326;2023-01-26T14:52:34;102432.03;;;8.76;100.00
45403;BME280;47427;51.976;5.326;2023-01-26T14:55:59;102439.59;;;8.57;100.00
45403;BME280;47427;51.976;5.326;2023-01-26T14:59:24;102432.22;;;8.36;100.00
45403;BME280;47427;51.976;5.326;2023-01-26T15:02:51;102430.88;;;8.28;100.00
45403;BME280;47427;51.976;5.326;2023-01-26T15:06:20;102431.41;;;8.37;100.00
45403;BME280;47427;51.976;5.326;2023-01-26T15:09:50;102433.22;;;8.38;100.00
45403;BME280;47427;51.976;5.326;2023-01-26T15:16:50;102429.69;;;8.38;100.00
45403;BME280;47427;51.976;5.326;2023-01-26T15:23:50;102428.28;;;8.15;100.00
45403;BME280;47427;51.976;5.326;2023-01-26T15:27:13;102427.53;;;8.02;100.00
45403;BME280;47427;51.976;5.326;2023-01-26T15:30:34;102434.28;;;7.99;100.00
45403;BME280;47427;51.976;5.326;2023-01-26T15:33:56;102444.69;;;7.84;100.00
45403;BME280;47427;51.976;5.326;2023-01-26T15:37:32;102427.81;;;7.79;100.00
45403;BME280;47427;51.976;5.326;2023-01-26T15:40:53;102439.78;;;7.75;100.00
45403;BME280;47427;51.976;5.326;2023-01-26T15:44:17;102432.97;;;7.64;100.00
45403;BME280;47427;51.976;5.326;2023-01-26T15:47:59;102427.38;;;7.58;100.00
45403;BME280;47427;51.976;5.326;2023-01-26T15:51:22;102438.53;;;7.55;100.00
45403;BME280;47427;51.976;5.326;2023-01-26T15:54:45;102441.44;;;7.47;100.00
45403;BME280;47427;51.976;5.326;2023-01-26T15:58:06;102454.09;;;7.41;100.00
45403;BME280;47427;51.976;5.326;2023-01-26T16:01:29;102442.16;;;7.31;100.00
45403;BME280;47427;51.976;5.326;2023-01-26T16:04:51;102455.84;;;7.27;100.00
45403;BME280;47427;51.976;5.326;2023-01-26T16:08:14;102450.09;;;7.19;100.00
45403;BME280;47427;51.976;5.326;2023-01-26T16:11:40;102460.25;;;7.14;100.00
45403;BME280;47427;51.976;5.326;2023-01-26T16:15:21;102471.06;;;7.07;100.00
45403;BME280;47427;51.976;5.326;2023-01-26T16:18:45;102471.47;;;7.00;100.00
45403;BME280;47427;51.976;5.326;2023-01-26T16:22:11;102484.19;;;6.95;100.00
45403;BME280;47427;51.976;5.326;2023-01-26T16:25:33;102477.56;;;6.87;100.00
45403;BME280;47427;51.976;5.326;2023-01-26T16:29:14;102486.91;;;6.84;100.00
45403;BME280;47427;51.976;5.326;2023-01-26T16:32:36;102495.09;;;6.77;100.00
45403;BME280;47427;51.976;5.326;2023-01-26T16:35:59;102489.56;;;6.72;100.00
45403;BME280;47427;51.976;5.326;2023-01-26T16:39:21;102483.25;;;6.68;100.00
45403;BME280;47427;51.976;5.326;2023-01-26T16:42:45;102481.22;;;6.64;100.00
45403;BME280;47427;51.976;5.326;2023-01-26T16:46:08;102487.91;;;6.61;100.00
45403;BME280;47427;51.976;5.326;2023-01-26T16:49:31;102493.03;;;6.59;100.00
45403;BME280;47427;51.976;5.326;2023-01-26T16:52:53;102496.56;;;6.60;100.00
45403;BME280;47427;51.976;5.326;2023-01-26T16:56:15;102492.94;;;6.58;100.00
45403;BME280;47427;51.976;5.326;2023-01-26T16:59:37;102485.72;;;6.54;100.00
45403;BME280;47427;51.976;5.326;2023-01-26T17:03:00;102491.81;;;6.54;100.00
45403;BME280;47427;51.976;5.326;2023-01-26T17:06:22;102497.81;;;6.53;100.00
45403;BME280;47427;51.976;5.326;2023-01-26T17:09:44;102498.31;;;6.47;100.00
45403;BME280;47427;51.976;5.326;2023-01-26T17:13:06;102495.28;;;6.41;100.00
45403;BME280;47427;51.976;5.326;2023-01-26T17:16:29;102497.69;;;6.38;100.00
45403;BME280;47427;51.976;5.326;2023-01-26T17:19:52;102495.66;;;6.34;100.00
45403;BME280;47427;51.976;5.326;2023-01-26T17:23:15;102485.34;;;6.36;100.00
45403;BME280;47427;51.976;5.326;2023-01-26T17:26:37;102480.28;;;6.25;100.00
45403;BME280;47427;51.976;5.326;2023-01-26T17:29:58;102491.94;;;6.31;100.00
45403;BME280;47427;51.976;5.326;2023-01-26T17:33:21;102484.22;;;6.32;100.00
45403;BME280;47427;51.976;5.326;2023-01-26T17:36:44;102474.47;;;6.29;100.00
45403;BME280;47427;51.976;5.326;2023-01-26T17:40:07;102475.66;;;6.21;100.00
45403;BME280;47427;51.976;5.326;2023-01-26T17:43:29;102474.06;;;6.23;100.00
45403;BME280;47427;51.976;5.326;2023-01-26T17:46:51;102477.41;;;6.34;100.00
45403;BME280;47427;51.976;5.326;2023-01-26T17:50:14;102483.31;;;6.32;100.00
45403;BME280;47427;51.976;5.326;2023-01-26T17:53:40;102469.25;;;6.29;100.00
45403;BME280;47427;51.976;5.326;2023-01-26T17:57:02;102469.19;;;6.28;100.00
45403;BME280;47427;51.976;5.326;2023-01-26T18:00:24;102476.19;;;6.29;100.00
45403;BME280;47427;51.976;5.326;2023-01-26T18:03:47;102474.28;;;6.26;100.00
45403;BME280;47427;51.976;5.326;2023-01-26T18:07:08;102465.34;;;6.23;100.00
45403;BME280;47427;51.976;5.326;2023-01-26T18:10:31;102478.94;;;6.19;100.00
45403;BME280;47427;51.976;5.326;2023-01-26T18:13:53;102472.84;;;6.18;100.00
45403;BME280;47427;51.976;5.326;2023-01-26T18:17:15;102459.13;;;6.21;100.00
45403;BME280;47427;51.976;5.326;2023-01-26T18:20:38;102470.22;;;6.18;100.00
45403;BME280;47427;51.976;5.326;2023-01-26T18:24:01;102468.53;;;6.19;100.00
45403;BME280;47427;51.976;5.326;2023-01-26T18:27:23;102468.53;;;6.19;100.00
45403;BME280;47427;51.976;5.326;2023-01-26T18:34:31;102462.63;;;6.21;100.00
45403;BME280;47427;51.976;5.326;2023-01-26T18:37:53;102456.97;;;6.15;100.00
45403;BME280;47427;51.976;5.326;2023-01-26T18:41:15;102462.78;;;6.11;100.00
45403;BME280;47427;51.976;5.326;2023-01-26T18:44:38;102464.47;;;6.11;100.00
45403;BME280;47427;51.976;5.326;2023-01-26T18:48:01;102465.06;;;6.06;100.00
45403;BME280;47427;51.976;5.326;2023-01-26T18:51:22;102459.63;;;6.03;100.00
45403;BME280;47427;51.976;5.326;2023-01-26T18:54:44;102453.28;;;6.00;100.00
45403;BME280;47427;51.976;5.326;2023-01-26T18:58:07;102456.50;;;5.96;100.00
45403;BME280;47427;51.976;5.326;2023-01-26T19:01:28;102459.09;;;5.96;100.00
45403;BME280;47427;51.976;5.326;2023-01-26T19:04:51;102453.53;;;5.91;100.00
45403;BME280;47427;51.976;5.326;2023-01-26T19:08:13;102452.88;;;5.94;100.00
45403;BME280;47427;51.976;5.326;2023-01-26T19:11:37;102453.63;;;5.93;100.00
45403;BME280;47427;51.976;5.326;2023-01-26T19:14:59;102460.22;;;5.88;100.00
45403;BME280;47427;51.976;5.326;2023-01-26T19:18:21;102457.63;;;5.88;100.00
45403;BME280;47427;51.976;5.326;2023-01-26T19:21:44;102468.25;;;5.91;100.00